Terminal Aerodrome Forecast
Issued by NWS Tuscon, AZ

Home | Current Version | Previous Version | Text Only | Print | Product List | Glossary On
Versions: 1 2 3 4 5 6 7 8 9 10 11 12 13 14 15 16 17
000
FTUS45 KTWC 151720
TAFTUS
TAF
KTUS 151720Z 1518/1618 10008KT P6SM SCT050 BKN100
     FM152100 35007KT P6SM BKN100
     FM160300 13007KT P6SM SCT100=

USA.gov is the U.S. government's official web portal to all federal, state and local government web resources and services.